createdAt,value
2022-09-20T00:00:50.243Z,14.77
2022-09-20T00:05:49.987Z,14.61
2022-09-20T00:10:50.205Z,14.54
2022-09-20T00:15:49.916Z,14.60
2022-09-20T00:20:48.482Z,14.58
2022-09-20T00:25:56.158Z,14.24
2022-09-20T00:30:54.554Z,14.43
2022-09-20T00:35:53.653Z,14.66
2022-09-20T00:40:53.347Z,14.46
2022-09-20T00:45:52.639Z,14.56
2022-09-20T00:50:55.363Z,14.65
2022-09-20T00:55:55.874Z,14.56
2022-09-20T01:00:57.527Z,14.62
2022-09-20T01:05:55.702Z,14.40
2022-09-20T01:10:55.150Z,14.10
2022-09-20T01:15:54.809Z,14.06
2022-09-20T01:20:51.552Z,14.32
2022-09-20T01:26:05.905Z,14.27
2022-09-20T01:31:08.141Z,14.31
2022-09-20T01:36:06.497Z,14.19
2022-09-20T01:41:05.505Z,13.85
2022-09-20T01:46:05.544Z,13.67
2022-09-20T01:51:17.250Z,13.74
2022-09-20T01:56:34.200Z,13.45
2022-09-20T02:01:45.687Z,13.20
2022-09-20T02:07:04.717Z,13.26
2022-09-20T02:12:19.189Z,13.01
2022-09-20T02:17:20.407Z,13.18
2022-09-20T02:22:28.442Z,12.87
2022-09-20T02:27:30.711Z,12.86
2022-09-20T02:32:34.782Z,12.92
2022-09-20T02:37:54.513Z,12.93
2022-09-20T02:42:58.102Z,12.70
2022-09-20T02:47:57.863Z,12.99
2022-09-20T02:53:04.977Z,12.71
2022-09-20T02:58:09.920Z,12.79
2022-09-20T03:03:13.537Z,12.72
2022-09-20T03:08:28.514Z,12.88
2022-09-20T03:13:31.572Z,12.79
2022-09-20T03:18:33.657Z,13.02
2022-09-20T03:23:38.137Z,13.05
2022-09-20T03:28:42.172Z,13.01
2022-09-20T03:33:44.070Z,13.01
2022-09-20T03:38:58.305Z,13.12
2022-09-20T03:44:03.167Z,13.12
2022-09-20T03:49:10.401Z,13.24
2022-09-20T03:54:25.654Z,13.00
2022-09-20T03:59:35.701Z,13.08
2022-09-20T04:04:36.611Z,13.22
2022-09-20T04:09:51.663Z,13.18
2022-09-20T04:14:56.301Z,13.06
2022-09-20T04:20:01.781Z,12.91
2022-09-20T04:25:03.654Z,12.94
2022-09-20T04:30:04.934Z,13.10
2022-09-20T04:35:27.989Z,13.13
2022-09-20T04:40:40.789Z,13.23
2022-09-20T04:46:01.793Z,13.36
2022-09-20T04:51:13.497Z,13.25
2022-09-20T04:56:22.133Z,13.29
2022-09-20T05:01:43.140Z,13.20
2022-09-20T05:07:12.166Z,13.07
2022-09-20T05:12:42.619Z,13.19
2022-09-20T05:17:52.209Z,13.13
2022-09-20T05:23:03.778Z,12.97
2022-09-20T05:28:06.456Z,12.85
2022-09-20T05:33:26.608Z,12.81
2022-09-20T05:43:37.421Z,12.95
2022-09-20T05:48:38.952Z,13.10
2022-09-20T05:53:56.788Z,13.31
2022-09-20T05:59:08.207Z,13.38
2022-09-20T06:04:15.596Z,13.42
2022-09-20T06:09:46.459Z,13.58
2022-09-20T06:14:47.254Z,13.86
2022-09-20T06:19:47.044Z,14.01
2022-09-20T06:24:47.030Z,14.07
2022-09-20T06:30:04.986Z,14.15
2022-09-20T06:35:15.978Z,14.30
2022-09-20T06:41:22.300Z,14.26
2022-09-20T06:47:44.148Z,14.43
2022-09-20T06:53:30.825Z,14.51
2022-09-20T07:23:20.108Z,15.73
2022-09-20T07:28:19.334Z,15.37
2022-09-20T07:33:21.022Z,15.39
2022-09-20T07:38:20.374Z,15.39
2022-09-20T07:43:22.776Z,15.34
2022-09-20T07:48:27.103Z,15.81
2022-09-20T07:53:24.084Z,16.32
2022-09-20T07:58:26.356Z,16.62
2022-09-20T08:03:23.215Z,16.75
2022-09-20T08:08:23.508Z,16.24
2022-09-20T08:19:00.304Z,17.07
2022-09-20T08:24:05.444Z,17.11
2022-09-20T08:29:08.829Z,17.52
2022-09-20T08:34:08.677Z,17.52
2022-09-20T08:44:45.746Z,17.27
2022-09-20T08:49:46.138Z,17.17
2022-09-20T08:54:45.287Z,17.32
2022-09-20T08:59:44.137Z,17.83
2022-09-20T09:04:55.631Z,17.70
2022-09-20T09:10:04.967Z,18.03
2022-09-20T09:15:19.921Z,18.08
2022-09-20T09:20:27.354Z,18.14
2022-09-20T09:25:37.607Z,18.25
2022-09-20T09:43:53.931Z,18.68
2022-09-20T09:49:26.931Z,18.59
2022-09-20T09:54:27.881Z,19.01
2022-09-20T09:59:44.211Z,19.27
2022-09-20T10:04:53.848Z,19.26
2022-09-20T10:16:48.449Z,19.03
2022-09-20T10:21:55.823Z,19.35
2022-09-20T10:27:12.022Z,19.55
2022-09-20T10:32:21.277Z,19.61
2022-09-20T10:37:28.917Z,19.81
2022-09-20T10:42:53.195Z,19.96
2022-09-20T10:47:56.712Z,19.74
2022-09-20T10:53:06.157Z,19.80
2022-09-20T10:58:17.049Z,20.01
2022-09-20T11:03:29.730Z,19.56
2022-09-20T11:08:32.473Z,19.84
2022-09-20T11:14:06.695Z,19.85
2022-09-20T11:19:11.605Z,19.87
2022-09-20T11:24:14.555Z,20.24
2022-09-20T11:29:21.337Z,20.48
2022-09-20T11:34:21.096Z,20.59
2022-09-20T11:39:22.052Z,20.74
2022-09-20T11:44:21.193Z,20.91
2022-09-20T11:49:23.336Z,20.59
2022-09-20T11:54:47.660Z,20.61
2022-09-20T11:59:52.288Z,20.29
2022-09-20T12:04:52.849Z,20.27
2022-09-20T12:09:53.322Z,20.25
2022-09-20T12:15:00.769Z,20.38
2022-09-20T12:19:57.526Z,20.23
2022-09-20T12:25:15.195Z,20.39
2022-09-20T12:30:20.340Z,20.68
2022-09-20T12:35:38.738Z,20.71
2022-09-20T12:40:38.497Z,20.12
2022-09-20T12:45:36.821Z,20.04
2022-09-20T12:50:53.728Z,20.19
2022-09-20T12:55:54.502Z,20.19
2022-09-20T13:01:14.436Z,20.39
2022-09-20T13:06:26.744Z,20.39
2022-09-20T13:11:24.546Z,20.54
2022-09-20T13:16:26.406Z,20.53
2022-09-20T13:21:23.731Z,20.76
2022-09-20T13:26:23.622Z,20.86
2022-09-20T13:31:44.777Z,20.89
2022-09-20T13:37:04.204Z,20.77
2022-09-20T13:42:06.496Z,20.77
2022-09-20T13:47:06.996Z,20.86
2022-09-20T13:52:16.882Z,20.78
2022-09-20T13:57:21.447Z,20.91
2022-09-20T14:02:23.047Z,20.88
2022-09-20T14:07:20.319Z,20.86
2022-09-20T14:12:18.856Z,20.86
2022-09-20T14:17:19.846Z,20.83
2022-09-20T14:22:25.169Z,20.91
2022-09-20T14:27:23.547Z,20.76
2022-09-20T14:32:31.394Z,20.82
2022-09-20T14:37:30.133Z,20.99
2022-09-20T14:42:31.531Z,21.00
2022-09-20T14:47:29.323Z,21.05
2022-09-20T14:52:35.185Z,21.08
2022-09-20T14:57:38.407Z,20.67
2022-09-20T15:02:35.726Z,20.17
2022-09-20T15:07:32.555Z,19.93
2022-09-20T15:12:29.355Z,19.92
2022-09-20T15:17:28.293Z,19.92
2022-09-20T15:22:25.849Z,19.99
2022-09-20T15:27:28.199Z,19.84
2022-09-20T15:32:25.411Z,19.64
2022-09-20T15:37:23.308Z,19.56
2022-09-20T15:42:23.362Z,19.24
2022-09-20T15:47:35.336Z,19.24
2022-09-20T15:52:35.705Z,19.50
2022-09-20T15:57:34.321Z,19.23
2022-09-20T16:02:31.292Z,19.06
2022-09-20T16:07:28.554Z,18.88
2022-09-20T16:12:27.196Z,18.97
2022-09-20T16:17:44.444Z,18.74
2022-09-20T16:22:41.541Z,18.77
2022-09-20T16:27:40.220Z,18.74
2022-09-20T16:32:37.019Z,19.00
2022-09-20T16:37:45.869Z,18.79
2022-09-20T16:42:51.501Z,18.66
2022-09-20T16:47:49.576Z,18.69
2022-09-20T16:52:46.653Z,18.81
2022-09-20T16:57:48.378Z,18.79
2022-09-20T17:02:49.480Z,18.73
2022-09-20T17:07:47.513Z,18.66
2022-09-20T17:12:47.311Z,18.73
2022-09-20T17:17:44.602Z,18.47
2022-09-20T17:22:42.603Z,18.49
2022-09-20T17:27:42.388Z,18.28
2022-09-20T17:32:52.672Z,18.24
2022-09-20T17:38:12.816Z,18.37
2022-09-20T17:43:15.030Z,18.17
2022-09-20T17:48:15.031Z,17.97
2022-09-20T17:53:11.760Z,17.96
2022-09-20T17:58:11.009Z,17.79
2022-09-20T18:03:07.768Z,17.71
2022-09-20T18:08:08.725Z,17.68
2022-09-20T18:13:06.422Z,17.59
2022-09-20T18:18:09.235Z,17.48
2022-09-20T18:23:09.261Z,17.55
2022-09-20T18:28:08.283Z,17.76
2022-09-20T18:33:08.441Z,17.59
2022-09-20T18:38:07.084Z,17.79
2022-09-20T18:43:04.881Z,17.38
2022-09-20T18:48:01.755Z,17.28
2022-09-20T18:52:59.248Z,17.22
2022-09-20T18:58:02.932Z,17.24
2022-09-20T19:03:09.991Z,17.26
2022-09-20T19:08:11.937Z,17.31
2022-09-20T19:13:19.735Z,17.33
2022-09-20T19:18:30.840Z,17.13
2022-09-20T19:23:47.317Z,17.18
2022-09-20T19:28:45.274Z,17.00
2022-09-20T19:33:48.042Z,17.00
2022-09-20T19:38:50.069Z,16.73
2022-09-20T19:43:59.626Z,16.64
2022-09-20T19:49:06.887Z,16.55
2022-09-20T19:54:03.904Z,16.79
2022-09-20T19:59:09.164Z,16.73
2022-09-20T20:04:09.746Z,16.54
2022-09-20T20:09:11.422Z,16.32
2022-09-20T20:14:18.297Z,16.26
2022-09-20T20:19:36.697Z,16.20
2022-09-20T20:24:41.490Z,16.26
2022-09-20T20:29:46.298Z,16.02
2022-09-20T20:34:54.746Z,16.04
2022-09-20T20:39:51.581Z,15.92
2022-09-20T20:44:56.591Z,15.75
2022-09-20T20:49:54.606Z,15.68
2022-09-20T20:54:54.500Z,15.42
2022-09-20T20:59:55.233Z,15.63
2022-09-20T21:04:55.737Z,15.73
2022-09-20T21:09:54.642Z,15.64
2022-09-20T21:14:53.591Z,15.66
2022-09-20T21:19:54.925Z,15.69
2022-09-20T21:24:55.517Z,15.93
2022-09-20T21:29:53.996Z,15.57
2022-09-20T21:34:50.740Z,15.68
2022-09-20T21:39:47.611Z,15.58
2022-09-20T21:44:44.398Z,15.70
2022-09-20T21:49:41.887Z,15.53
2022-09-20T21:54:41.660Z,15.66
2022-09-20T21:59:39.887Z,15.46
2022-09-20T22:04:36.716Z,15.37
2022-09-20T22:09:34.215Z,15.33
2022-09-20T22:14:31.248Z,15.16
2022-09-20T22:19:28.023Z,15.21
2022-09-20T22:24:24.767Z,15.38
2022-09-20T22:29:24.485Z,15.38
2022-09-20T22:34:24.218Z,15.31
2022-09-20T22:39:20.933Z,15.45
2022-09-20T22:44:17.795Z,15.45
2022-09-20T22:49:17.166Z,15.43
2022-09-20T22:54:14.000Z,15.59
2022-09-20T22:59:14.079Z,15.55
2022-09-20T23:04:12.474Z,15.43
2022-09-20T23:09:11.133Z,15.36
2022-09-20T23:14:12.765Z,15.52
2022-09-20T23:19:12.020Z,15.34
2022-09-20T23:24:13.631Z,15.20
2022-09-20T23:29:14.702Z,15.07
2022-09-20T23:34:15.055Z,15.00
2022-09-20T23:39:15.087Z,14.93
2022-09-20T23:44:11.822Z,14.88
2022-09-20T23:49:10.949Z,14.86
2022-09-20T23:54:07.655Z,14.90
2022-09-20T23:59:05.019Z,14.56
